MMTO/TLC METAR and TAF weather

Enter ICAO airport designator
Station Type Date Time Source
MMTO METAR 2019/06/26 05:51 UTC NOAA

MMTO 260551Z 00000KT 7SM FEW015 BKN070 12/08 A3042 RMK SLP102 57007 907 8/530


Station Type Date Time Source
MMTO Decoded METAR 2019/06/26 05:51 UTC NOAA

Toluca / Jose Maria , Mexico (MMTO) 19-21N 099-34W
Jun 26, 2019 - 01:51 AM EDT / 2019.06.26 0551 UTC
Wind: Calm:0
Visibility: 7 mile(s):0
Sky conditions: mostly cloudy
Temperature: 53 F (12 C)
Dew Point: 46 F (8 C)
Relative Humidity: 76%
Pressure (altimeter): 30.42 in. Hg (1030 hPa)
Pressure tendency: 0.02 inches (0.7 hPa) lower than three hours ago
ob: MMTO 260551Z 00000KT 7SM FEW015 BKN070 12/08 A3042 RMK SLP102 57007 907 8/530
cycle: 6

Station Type Date Time Source
MMTO TAF 2019/06/26 06:57 UTC NOAA

TAF TAF MMTO 260454Z 2606/2712 06005KT 6SM HZ SCT015 BKN080 TX22/2621Z TN11/2612Z
FM260900 03005KT 5SM HZ SCT015 BKN250
TEMPO 2610/2614 3SM BR BKN015
FM261700 08005KT P6SM SCT015 SCT080
FM262100 13010KT P6SM BKN015CB OVC080
TEMPO 2622/2702 2SM TSRA

Example: see airport list